Main page
METAR-TAF:

METAR-TAF

Airports :

Gustavo Rojas Pinilla International Airport

San Andrés, Colombia

latitude: 12-35N, longitude: 081-43W, elevation: 1 m

Current weather observation

The report was made 48 minutes ago, at 11:00 UTC
Wind 8 kt from the East/Northeast
Temperature 26°C
Humidity 70%
Pressure 1011 hPa
Visibility 10 km or more
Scattered clouds at a height of 1700 ft

METAR: SKSP 011100Z 06008KT 9999 SCT017 26/20 A2984

Time: 06:48 (11:48 UTC)

Forecast

The report was made 1 hour and 18 minutes ago, at 10:30 UTC
Forecast valid from 01 at 12 UTC to 02 at 12 UTC
Wind 12 kt from the East/Northeast
Visibility 10 km or more
Few clouds at a height of 1700 ft
Temporary
from 01 at 12 UTC to 01 at 13 UTC
Scattered clouds at a height of 1400 ft
light drizzle

TAF: SKSP 011030Z 0112/0212 07012KT 9999 FEW017 TEMPO 0112/0113 -DZ SCT014 TX31/0119Z TN25/0210Z

Weather observations and forecasts of more than 4000 airports (METAR and TAF reports).

The available stations are represented by yellow and red dots on the map.

Hover mouse over dot to see the name of the station.

Then click to see weather observations and forecasts.

To change the map : click on the green buttons with a black cross to zoom in, on the green button with a dash to zoom out, or on the green arrows for adjacent maps.


METAR-TAF: